Milo, Missouri
Current Conditions -  °F | °C
As of 3:15 PM on Monday 22 Dec 2014 (Local Time) from KPTS Reporting Station
Light Rain Light Rain  
Wind Chill: 51°   Ceiling: 800
Heat Index: 51°   Visibility: 7mi
Dew Point: 51°   Wind: 7mph
Humidity: 100%   Direction: 270°W
Pressure: 29.48"   Gusts: NA
Location:  37.76°N, 94.31°W
Report Text: KPTS 222115Z AUTO 27006KT 7SM -RA BKN008 BKN014 OVC019 11/11 A2948 RMK AO2 T01050106
Loading
Personal Weather Stations






























Interactive Weather Map New forecast layout! Learn more

10-Day Weather Forecast

Advertisements
Track Severe Weather on mobile